Nearby METAR Reports

 

KORH - Worcester, Massachusetts, USA
Distance from station: NW 4mi, 7km
Updated: Fri, 19-Jul-2019 4:54pm EDT
Few Clouds
Few Clouds
 Wind from SW
Wind: SW 12 mph , 19 km/h
Temperature: 84°F , 29°C
Heat Index: 90°F , 32°C
Dew Point: 73°F , 23°C
Humidity: 70%
Barometer: 29.84 inHg , 1010.5 hPa
Clouds: Few Clouds
Visibility: 10 miles , 16 km
Cloud details: Few Clouds 3400 ft
2019/07/19 20:54 KORH 192054Z 23010KT 10SM FEW034 29/23 A2984 RMK AO2 SLP100 T02940233 56009
KBOS - Boston, Massachusetts, USA
Distance from station: ENE 42mi, 68km
Updated: Fri, 19-Jul-2019 4:54pm EDT
Mostly cloudy
Mostly cloudy
 Wind from WSW
Wind: WSW 12 mph , 19 km/h, Gust: 22 mph , 35 km/h
Temperature: 91°F , 33°C
Heat Index: 98°F , 37°C
Dew Point: 72°F , 22°C
Humidity: 52%
Barometer: 29.77 inHg , 1008.1 hPa
Clouds: Mostly cloudy
Visibility: 10 miles , 16 km
Cloud details: Partly cloudy 4600 ft
Mostly cloudy 25000 ft
2019/07/19 20:54 KBOS 192054Z 24010G19KT 10SM SCT046 BKN250 33/22 A2977 RMK AO2 SLP079 T03330217 56014
 
KCQX - Chatham, Massachusetts, USA
Distance from station: SE 102mi, 164km
Updated: Fri, 19-Jul-2019 5:19pm EDT
Partly cloudy
Partly cloudy
 Wind from WSW
Wind: WSW 10 mph , 17 km/h, Gust: 23 mph , 37 km/h
Temperature: 75°F , 24°C
Dew Point: 72°F , 22°C
Humidity: 89%
Barometer: 29.83 inHg , 1010.2 hPa
Clouds: Partly cloudy
Visibility: 10 miles , 16 km
Cloud details: Partly cloudy 1000 ft
2019/07/19 21:19 KCQX 192119Z AUTO 24009G20KT 210V270 10SM SCT010 24/22 A2983 RMK AO2 T02440217
KMVY - Marthas Vineyard, Massachusetts, USA
Distance from station: SE 84mi, 135km
Updated: Fri, 19-Jul-2019 4:53pm EDT
Mostly cloudy
Mostly cloudy
 Wind from SW
Wind: SW 13 mph , 20 km/h, Gust: 20 mph , 31 km/h
Temperature: 73°F , 23°C
Dew Point: 70°F , 21°C
Humidity: 89%
Barometer: 29.85 inHg , 1010.8 hPa
Clouds: Mostly cloudy
Visibility: 10 miles , 16 km
Cloud details: Mostly cloudy 700 ft
2019/07/19 20:53 KMVY 192053Z 22011G17KT 10SM BKN007 23/21 A2985 RMK AO2 SLP106 T02330206 56004
 
KPVC - Provincetown, Massachusetts, USA
Distance from station: NNW 85mi, 136km
Updated: Fri, 19-Jul-2019 4:56pm EDT
Clear
Clear
 Wind from SSW
Wind: SSW 16 mph , 26 km/h, Gust: 21 mph , 33 km/h
Temperature: 79°F , 26°C
Dew Point: 72°F , 22°C
Humidity: 79%
Barometer: 29.81 inHg , 1009.5 hPa
Clouds: Clear
Visibility: 10 miles , 16 km
2019/07/19 20:56 KPVC 192056Z AUTO 20014G18KT 10SM CLR 26/22 A2981 RMK AO2 SLP093 6//// T02610222 56012 PNO $
KAQW - Savoy, Massachusetts, USA
Distance from station: NNW 66mi, 106km
Updated: Fri, 19-Jul-2019 4:52pm EDT
Few Clouds
Few Clouds
 Wind from varies
Wind: varies 7 mph , 11 km/h
Temperature: 88°F , 31°C
Heat Index: 98°F , 37°C
Dew Point: 75°F , 24°C
Humidity: 66%
Barometer: 29.81 inHg , 1009.5 hPa
Clouds: Few Clouds
Visibility: 10 miles , 16 km
Cloud details: Few Clouds 6500 ft
2019/07/19 20:52 KAQW 192052Z AUTO VRB06KT 10SM FEW065 31/24 A2981 RMK AO2 SLP091 T03110239 58005
 
KIZG - Fryeburg, Maine, USA
Distance from station: NNE 133mi, 214km
Updated: Fri, 19-Jul-2019 4:54pm EDT
Mostly cloudy
Mostly cloudy
 Wind from varies
Wind: varies 7 mph , 11 km/h, Gust: 16 mph , 26 km/h
Temperature: 90°F , 32°C
Heat Index: 96°F , 36°C
Dew Point: 70°F , 21°C
Humidity: 52%
Barometer: 29.73 inHg , 1006.8 hPa
Clouds: Mostly cloudy
Visibility: 10 miles , 16 km
Cloud details: Mostly cloudy 6000 ft
Mostly cloudy 8000 ft
2019/07/19 20:54 KIZG 192054Z AUTO VRB06G14KT 10SM BKN060 BKN080 32/21 A2973 RMK AO2 SLP065 T03170211 56014
KMWN - Mt Washington, New Hampshire, USA
Distance from station: NNE 146mi, 234km
Updated: Fri, 19-Jul-2019 4:49pm EDT
Fog, Overcast
Fog, Overcast
 Wind from W
Wind: W 41 mph , 67 km/h, Gust: 56 mph , 91 km/h
Temperature: 61°F , 16°C
Dew Point: 61°F , 16°C
Humidity: 100%
Summary: Fog
Clouds: Overcast
Visibility: 0 miles , 0 km
Cloud details: Overcast 0 ft
2019/07/19 20:49 KMWN 192049Z 28036G49KT 0SM FG VV000 16/16 RMK
 
KBML - Berlin, New Hampshire, USA
Distance from station: NNE 160mi, 257km
Updated: Fri, 19-Jul-2019 4:52pm EDT
Few Clouds
Few Clouds
 Wind from W
Wind: W 7 mph , 11 km/h
Temperature: 88°F , 31°C
Heat Index: 92°F , 33°C
Dew Point: 68°F , 20°C
Humidity: 52%
Barometer: 29.75 inHg , 1007.5 hPa
Clouds: Few Clouds
Visibility: 10 miles , 16 km
Cloud details: Few Clouds 6000 ft
2019/07/19 20:52 KBML 192052Z AUTO 28006KT 10SM FEW060 31/20 A2975 RMK AO2 SLP070 T03110200 58009